Historyczne dane pomiarowe

Dodano dane terminowe – wersja testowa.

Dane z okresu 1951-2019

Wersja bazy: 1.34 [2019-03-16, lista zmian], aktualizacja planowana na 2019-04-15

Dane meteo z obszaru Polski uzyskane na podstawie danych udostępnionych przez Instytut Meteorologii i Gospodarki Wodnej – Państwowy Instytut Badawczy.

 

Wybierz Datę:    

       

TemperaturaWilgotnośćWiatrCiśnienieOpadyŚniegCzas trwania zjawisk
 Stacja t tx tn tng RH VA  wxwx mslp ppp RRR   cm mm wxwxwxwxwxwxwx
2017-01-17 -2.5 -0.6 -7.1 -9.1 88.8 4.5------ 0.0--x---------
2017-01-18 -3.3 -2.3 -5.9 -5.7 87.9 4.2------ 0.0--x---------
2017-01-19 -5.5 -4.0 -7.4 -7.0 88.2 3.6------ 0.0--x---------
2017-01-20 -1.5 0.7 -4.1 -3.8 85.4 4.7------ 0.0--x---------
2017-01-21 0.2 1.3 -0.8 -1.2 95.2 5.9------ 0.0--x---------
2017-01-22 -2.4 0.9 -6.3 -8.2 93.0 4.8------ 0.0--x---------
2017-01-23 -5.9 -1.8 -9.9-11.3 89.3 3.5------ 0.0--x---------
2017-01-24 -2.1 -1.0 -3.7 -3.7 94.3 4.9------ 0.0--x---------
2017-01-25 -0.1 0.8 -1.0 -1.0 96.4 5.9------ 0.0--x---------
2017-01-26 -1.0 1.5 -6.3 -8.8 92.1 5.3------ 0.0--x---------
2017-01-27 -3.8 4.3 -9.0-10.9 81.1 3.7------ 0.0--x---------
2017-01-28 -5.6 0.2-10.1-12.3 80.9 3.2------ 0.0--x---------
2017-01-29 -2.3 5.3 -8.5-10.1 81.8 4.3------ 0.0--x---------
2017-01-30 -0.8 3.1 -4.9 -8.1 78.5 4.5------ 2.8--x---------
2017-01-31 -0.8 0.4 -1.7 -1.9 89.8 5.2------ 0.4--x---------
2017-02-01 -1.4 1.6 -8.0-11.3 91.6 5.1------ 0.0--x---------
2017-02-02 -3.5 1.4-10.2-13.5 90.9 4.4------ 1.4--x---------
2017-02-03 0.7 2.2 -1.0 -1.2 95.8 6.2------ 1.7--x---------
2017-02-04 2.2 5.6 0.2 -1.1 97.2 7.0------ 1.4--x---------
2017-02-05 1.6 3.7 -0.1 -0.2 97.0 6.6------ 0.1--x---------
2017-02-06 -1.2 -0.1 -2.3 -2.1 87.6 4.9------ 0.0--x---------
2017-02-07 -1.5 -0.6 -3.2 -3.2 80.5 4.4------ 0.0--x---------
2017-02-08 -4.6 -3.2 -5.3 -5.5 72.8 3.2------ 0.0--x---------
2017-02-09 -4.9 -2.8 -7.4 -8.8 73.7 3.1------ 0.0--x---------
2017-02-10 -3.0 0.9 -6.7 -8.2 75.0 3.7------ 0.0--x---------
2017-02-11 -3.0 -1.8 -5.0 -6.4 62.1 3.0------ 0.0--x---------
2017-02-12 -2.9 -2.0 -5.9 -7.4 68.8 3.4------ 0.0--x---------
2017-02-13 -4.7 1.6 -9.5-11.3 80.5 3.4------ 0.0--x---------
2017-02-14 -3.7 4.0 -7.6 -7.3 84.3 3.9------ 0.0--x---------
2017-02-15 1.0 15.0 -6.8 -8.1 73.0 4.4------ 0.0--x---------
276.2 ms

 

Źródłem pochodzenia danych jest Instytut Meteorologii i Gospodarki Wodnej – Państwowy Instytut Badawczy. Dane Instytutu Meteorologii i Gospodarki Wodnej – Państwowego Instytutu Badawczego zostały przetworzone.

Dane źródłowe można odnaleźć na stronie https://dane.imgw.pl